Time;durP1;ratioP1;P1;durP2;ratioP2;P2;SDS_P1;SDS_P2;PMS_P1;PMS_P2;Temp;Humidity;BMP_temperature;BMP_pressure;BME280_temperature;BME280_humidity;BME280_pressure;Samples;Min_cycle;Max_cycle;Signal;HPM_P1;HPM_P2
2022/10/14 00:01:37;;;;;;;7.80;4.30;;;13.80;67.90;;;;;;4982104;28;46493;-83
2022/10/14 00:04:03;;;;;;;10.50;4.17;;;13.90;67.70;;;;;;4965214;28;46429;-85
2022/10/14 00:06:30;;;;;;;8.40;4.50;;;13.90;66.40;;;;;;4984731;28;46604;-85
2022/10/14 00:09:00;;;;;;;7.20;4.40;;;14.00;67.50;;;;;;4969161;28;47935;-84
2022/10/14 00:11:28;;;;;;;8.47;3.93;;;13.90;67.60;;;;;;4972818;28;46411;-85
2022/10/14 00:13:56;;;;;;;7.77;4.37;;;13.90;67.70;;;;;;4973088;28;46507;-83
2022/10/14 00:16:26;;;;;;;8.93;3.90;;;13.80;67.90;;;;;;4985849;28;46546;-85
2022/10/14 00:18:52;;;;;;;6.30;4.13;;;13.60;68.30;;;;;;4970110;28;48655;-84
2022/10/14 00:21:18;;;;;;;6.07;4.27;;;13.40;69.40;;;;;;4976268;28;46495;-84
2022/10/14 00:23:45;;;;;;;6.47;4.27;;;13.30;69.90;;;;;;4986446;28;46546;-83
2022/10/14 00:26:31;;;;;;;8.87;4.03;;;13.30;69.10;;;;;;4967570;28;46008;-85
2022/10/14 00:28:59;;;;;;;5.40;3.40;;;13.30;70.20;;;;;;4969346;28;48420;-83
2022/10/14 00:31:25;;;;;;;4.80;3.53;;;13.20;70.30;;;;;;4984862;28;46438;-85
2022/10/14 00:33:50;;;;;;;12.10;3.80;;;13.20;70.70;;;;;;4968187;28;46246;-84
2022/10/14 00:36:18;;;;;;;6.57;3.80;;;13.20;70.60;;;;;;4986998;28;45863;-86
2022/10/14 00:38:44;;;;;;;6.40;4.10;;;13.20;70.40;;;;;;4969215;28;48868;-85
2022/10/14 00:41:12;;;;;;;4.70;3.10;;;13.30;70.30;;;;;;4986514;28;46411;-84
2022/10/14 00:44:02;;;;;;;6.10;3.73;;;13.20;70.60;;;;;;4968505;28;45820;-85
2022/10/14 00:46:34;;;;;;;6.40;4.07;;;13.30;71.00;;;;;;4971088;28;46701;-84
2022/10/14 00:49:07;;;;;;;8.00;3.70;;;13.10;71.30;;;;;;4968503;28;48195;-85
2022/10/14 00:51:34;;;;;;;6.43;4.03;;;13.00;71.70;;;;;;4968192;28;46380;-84
2022/10/14 00:53:59;;;;;;;5.47;3.60;;;13.00;71.40;;;;;;4986736;28;46424;-84
2022/10/14 00:56:29;;;;;;;7.80;3.47;;;13.10;70.00;;;;;;4968740;28;46299;-84
2022/10/14 00:58:55;;;;;;;5.70;3.20;;;13.20;71.00;;;;;;4968117;28;48398;-84
2022/10/14 01:01:21;;;;;;;5.97;3.57;;;13.20;70.70;;;;;;4987640;28;46451;-84
2022/10/14 01:03:47;;;;;;;9.10;3.50;;;13.20;70.50;;;;;;4964778;28;46495;-83
2022/10/14 01:06:33;;;;;;;8.67;3.87;;;13.20;69.60;;;;;;4971536;28;46366;-84
2022/10/14 01:09:04;;;;;;;12.10;3.93;;;13.30;70.70;;;;;;4987661;28;46560;-86
2022/10/14 01:11:37;;;;;;;5.70;3.80;;;13.20;70.50;;;;;;4984345;28;46493;-85
2022/10/14 01:14:14;;;;;;;5.40;3.70;;;13.20;70.40;;;;;;4987084;28;45830;-85
2022/10/14 01:17:16;;;;;;;7.43;4.13;;;13.30;70.30;;;;;;4989677;28;46434;-85
2022/10/14 01:19:51;;;;;;;7.77;3.53;;;13.30;70.00;;;;;;4985465;28;48216;-84
2022/10/14 01:22:34;;;;;;;7.20;3.40;;;13.30;69.90;;;;;;4968797;28;46337;-84
2022/10/14 01:25:08;;;;;;;7.27;4.13;;;13.30;69.90;;;;;;4967666;28;46398;-84
2022/10/14 01:28:09;;;;;;;5.83;3.53;;;13.30;69.10;;;;;;4965472;28;46508;-84
2022/10/14 01:30:42;;;;;;;7.90;4.03;;;13.30;70.10;;;;;;4959347;28;49572;-84
2022/10/14 01:33:31;;;;;;;9.13;4.03;;;13.40;70.00;;;;;;4967156;28;46382;-85
2022/10/14 01:36:16;;;;;;;8.33;3.80;;;13.40;68.80;;;;;;4968570;28;46491;-86
2022/10/14 01:38:54;;;;;;;9.23;4.27;;;13.50;69.80;;;;;;4983298;28;46830;-84
2022/10/14 01:41:25;;;;;;;14.00;3.83;;;13.50;69.80;;;;;;4964536;28;48953;-84
2022/10/14 01:43:54;;;;;;;12.93;4.53;;;13.40;69.60;;;;;;4965598;28;46415;-85
2022/10/14 01:46:21;;;;;;;5.93;3.83;;;13.50;68.80;;;;;;4979721;28;46444;-86
2022/10/14 01:48:52;;;;;;;11.13;4.33;;;13.50;69.80;;;;;;4984602;28;46117;-86
2022/10/14 01:51:40;;;;;;;6.97;4.10;;;13.50;69.70;;;;;;4967287;28;49260;-85
2022/10/14 01:54:10;;;;;;;10.30;4.33;;;13.50;69.60;;;;;;4985531;28;46342;-85
2022/10/14 01:56:37;;;;;;;9.20;4.43;;;13.60;68.60;;;;;;4986664;28;46405;-85
2022/10/14 01:59:04;;;;;;;8.50;4.90;;;13.60;69.60;;;;;;4986390;28;46366;-86
2022/10/14 02:01:30;;;;;;;9.63;4.33;;;13.50;69.70;;;;;;4972313;28;48500;-85
2022/10/14 02:03:56;;;;;;;16.00;4.90;;;13.50;69.90;;;;;;4971126;28;46286;-85
2022/10/14 02:06:27;;;;;;;8.87;4.30;;;13.50;69.20;;;;;;4985230;28;46664;-85
2022/10/14 02:09:27;;;;;;;8.53;5.10;;;13.50;70.30;;;;;;4967572;28;46411;-84
2022/10/14 02:11:55;;;;;;;7.80;4.60;;;13.40;70.20;;;;;;4984233;28;47786;-84
2022/10/14 02:14:41;;;;;;;7.90;5.10;;;13.40;70.30;;;;;;4985547;28;46231;-85
2022/10/14 02:17:28;;;;;;;9.40;5.43;;;13.40;69.50;;;;;;4981704;28;46449;-83
2022/10/14 02:20:16;;;;;;;8.17;5.30;;;13.30;70.60;;;;;;4987145;28;46110;-84
2022/10/14 02:22:46;;;;;;;15.33;6.13;;;13.30;70.70;;;;;;4967030;28;49330;-85
2022/10/14 02:25:20;;;;;;;11.53;5.47;;;13.30;70.60;;;;;;4984728;28;46348;-84
2022/10/14 02:27:48;;;;;;;9.70;5.80;;;13.40;69.70;;;;;;4982250;28;45880;-83
2022/10/14 02:30:14;;;;;;;8.80;5.37;;;13.30;70.70;;;;;;4967990;28;46358;-83
2022/10/14 02:32:41;;;;;;;12.00;5.70;;;13.30;70.80;;;;;;4970508;28;48479;-85
2022/10/14 02:35:09;;;;;;;8.57;5.83;;;13.30;70.70;;;;;;4986365;28;47629;-83
2022/10/14 02:37:37;;;;;;;7.87;6.00;;;13.40;69.70;;;;;;4967053;28;46476;-84
2022/10/14 02:40:06;;;;;;;16.13;5.77;;;14.00;71.50;;;;;;4969088;28;46924;-84
2022/10/14 02:42:32;;;;;;;10.80;5.77;;;13.30;70.70;;;;;;4966098;28;49390;-84
2022/10/14 02:44:59;;;;;;;7.10;5.00;;;13.30;70.90;;;;;;4964754;28;46960;-85
2022/10/14 02:47:26;;;;;;;11.00;6.50;;;13.30;70.00;;;;;;4981787;28;46499;-84
2022/10/14 02:49:52;;;;;;;9.10;5.30;;;13.30;71.10;;;;;;4966897;28;46279;-82
2022/10/14 02:52:18;;;;;;;7.37;4.97;;;13.30;71.00;;;;;;4968904;28;48007;-85
2022/10/14 02:54:43;;;;;;;10.20;5.93;;;13.30;70.00;;;;;;4966943;28;46244;-84
2022/10/14 02:57:09;;;;;;;11.70;5.47;;;13.30;70.00;;;;;;4982308;28;45888;-85
2022/10/14 02:59:35;;;;;;;12.27;5.87;;;13.30;71.00;;;;;;4984080;28;46288;-84
2022/10/14 03:02:00;;;;;;;15.40;6.30;;;13.30;70.90;;;;;;4966439;28;48519;-85
2022/10/14 03:04:26;;;;;;;9.63;5.80;;;13.30;71.00;;;;;;4966170;28;46326;-81
2022/10/14 03:06:52;;;;;;;11.13;5.43;;;13.20;69.90;;;;;;4983315;28;45788;-83
2022/10/14 03:09:18;;;;;;;12.73;6.07;;;13.20;71.00;;;;;;4984483;28;46437;-84
2022/10/14 03:11:44;;;;;;;14.77;6.27;;;13.20;71.00;;;;;;4965580;28;49450;-85
2022/10/14 03:14:09;;;;;;;8.70;5.87;;;13.20;71.00;;;;;;4964802;28;46478;-85
2022/10/14 03:16:35;;;;;;;9.93;6.20;;;13.20;70.20;;;;;;4981231;28;45902;-84
2022/10/14 03:19:00;;;;;;;35.27;21.33;;;13.10;71.10;;;;;;4983864;28;46644;-85
2022/10/14 03:21:26;;;;;;;13.47;8.93;;;13.10;71.30;;;;;;4966942;28;56342;-85
2022/10/14 03:23:52;;;;;;;10.83;5.90;;;;;;;;;;4981631;28;45813;-85
2022/10/14 03:26:17;;;;;;;11.53;5.67;;;13.10;70.50;;;;;;4962981;28;45993;-84
2022/10/14 03:28:43;;;;;;;12.77;6.63;;;13.10;71.50;;;;;;4968333;28;46315;-84
2022/10/14 03:31:08;;;;;;;14.30;8.20;;;13.10;71.20;;;;;;4967755;28;48258;-84
2022/10/14 03:33:34;;;;;;;12.70;7.30;;;13.10;71.20;;;;;;4983213;28;46354;-85
2022/10/14 03:36:00;;;;;;;10.67;6.03;;;13.10;70.30;;;;;;4982714;28;46470;-85
2022/10/14 03:38:25;;;;;;;17.00;7.00;;;13.10;71.40;;;;;;4983128;28;45969;-84
2022/10/14 03:40:51;;;;;;;13.90;8.10;;;17.00;75.00;;;;;;4967337;28;50609;-84
2022/10/14 03:43:16;;;;;;;12.40;7.40;;;13.10;71.30;;;;;;4972965;28;46499;-84
2022/10/14 03:45:44;;;;;;;14.30;8.60;;;13.10;70.40;;;;;;4967525;28;46508;-83
2022/10/14 03:48:09;;;;;;;12.70;7.93;;;13.10;71.40;;;;;;4983905;28;46403;-85
2022/10/14 03:50:35;;;;;;;12.50;7.60;;;13.10;72.60;;;;;;4967783;28;51271;-85
2022/10/14 03:53:00;;;;;;;16.40;6.17;;;13.10;71.60;;;;;;4986293;28;45822;-84
2022/10/14 03:55:26;;;;;;;12.83;6.37;;;13.00;71.50;;;;;;4969355;28;46326;-85
2022/10/14 03:57:52;;;;;;;11.93;7.57;;;13.10;70.70;;;;;;4969988;28;46473;-84
2022/10/14 04:00:18;;;;;;;12.97;6.43;;;13.00;71.80;;;;;;4988066;28;47189;-84
2022/10/14 04:02:43;;;;;;;19.03;9.47;;;13.00;71.70;;;;;;4986932;28;46246;-86
2022/10/14 04:05:09;;;;;;;17.50;10.30;;;13.00;71.80;;;;;;4983405;28;46435;-84
2022/10/14 04:07:35;;;;;;;15.93;7.60;;;13.00;70.80;;;;;;4968921;28;47340;-84
2022/10/14 04:10:01;;;;;;;11.77;7.00;;;13.00;71.80;;;;;;4988076;28;47273;-86
2022/10/14 04:12:26;;;;;;;16.00;9.20;;;13.00;71.70;;;;;;4970531;28;46580;-83
2022/10/14 04:14:55;;;;;;;14.77;8.73;;;;;;;;;;4971552;28;45813;-86
2022/10/14 04:17:21;;;;;;;16.23;8.20;;;;;;;;;;4989607;28;45942;-83
2022/10/14 04:19:47;;;;;;;9.30;6.27;;;13.00;70.50;;;;;;4989204;28;46409;-84
2022/10/14 04:22:13;;;;;;;13.40;7.27;;;12.90;71.60;;;;;;4984643;28;46391;-83
2022/10/14 04:24:38;;;;;;;14.73;6.90;;;13.00;70.40;;;;;;4966503;28;46323;-83
2022/10/14 04:27:04;;;;;;;11.13;6.03;;;13.10;70.10;;;;;;4988131;28;46314;-83
2022/10/14 04:29:29;;;;;;;13.17;7.07;;;13.00;71.10;;;;;;4967763;28;48161;-83
2022/10/14 04:31:55;;;;;;;12.93;7.20;;;13.00;71.00;;;;;;4988489;28;45747;-83
2022/10/14 04:34:20;;;;;;;14.73;7.50;;;13.00;71.10;;;;;;4963788;28;49515;-82
2022/10/14 04:36:46;;;;;;;15.90;7.83;;;12.90;70.20;;;;;;4982365;28;46697;-83
2022/10/14 04:39:11;;;;;;;13.03;7.87;;;12.90;71.30;;;;;;4984178;28;47446;-84
2022/10/14 04:41:37;;;;;;;13.93;7.70;;;12.80;71.40;;;;;;4966986;28;46573;-84
2022/10/14 04:44:02;;;;;;;11.50;6.73;;;12.90;71.40;;;;;;4965141;28;46858;-84
2022/10/14 04:46:28;;;;;;;12.67;7.07;;;12.90;70.30;;;;;;4985637;28;46665;-84
2022/10/14 04:48:54;;;;;;;12.90;7.40;;;13.00;71.30;;;;;;4966305;28;48034;-84
2022/10/14 04:51:19;;;;;;;10.33;6.80;;;12.90;71.20;;;;;;4968484;28;46304;-82
2022/10/14 04:53:45;;;;;;;12.27;6.40;;;13.00;71.30;;;;;;4984871;28;46505;-83
2022/10/14 04:56:10;;;;;;;16.20;6.67;;;13.10;70.20;;;;;;4969031;28;46351;-83
2022/10/14 04:58:36;;;;;;;15.73;7.33;;;13.00;71.10;;;;;;4984022;28;48359;-83
2022/10/14 05:01:01;;;;;;;12.67;7.30;;;13.00;71.10;;;;;;4983626;28;45889;-83
2022/10/14 05:03:27;;;;;;;20.30;7.60;;;13.00;71.10;;;;;;4967030;28;46625;-83
2022/10/14 05:05:52;;;;;;;15.60;6.53;;;13.00;70.30;;;;;;4968805;28;46864;-84
2022/10/14 05:08:18;;;;;;;9.50;7.00;;;12.90;71.10;;;;;;4969086;28;48112;-83
2022/10/14 05:10:43;;;;;;;11.43;6.67;;;13.00;70.00;;;;;;4985160;28;46385;-83
2022/10/14 05:13:09;;;;;;;12.33;6.73;;;13.10;70.10;;;;;;4985328;28;46751;-83
2022/10/14 05:15:34;;;;;;;11.90;7.70;;;13.10;69.90;;;;;;4985191;28;46529;-82
2022/10/14 05:18:00;;;;;;;14.90;7.87;;;13.10;71.00;;;;;;4988347;28;46589;-84
2022/10/14 05:20:26;;;;;;;18.53;7.90;;;13.10;70.70;;;;;;4983883;28;45842;-85
2022/10/14 05:22:51;;;;;;;15.70;7.20;;;13.10;70.70;;;;;;4987759;28;46270;-84
2022/10/14 05:25:17;;;;;;;11.80;7.93;;;13.10;70.70;;;;;;4984545;28;46411;-84
2022/10/14 05:27:42;;;;;;;18.10;10.73;;;13.10;69.80;;;;;;4968435;28;48273;-83
2022/10/14 05:30:09;;;;;;;30.30;14.13;;;13.10;71.00;;;;;;4984450;28;46359;-84
2022/10/14 05:32:34;;;;;;;21.70;12.60;;;13.10;71.10;;;;;;4966351;28;46319;-84
2022/10/14 05:35:00;;;;;;;20.13;11.43;;;13.10;71.10;;;;;;4986857;28;46361;-85
2022/10/14 05:37:26;;;;;;;18.80;10.63;;;13.10;70.10;;;;;;4969459;28;47846;-85
2022/10/14 05:39:51;;;;;;;16.00;10.47;;;13.10;71.10;;;;;;4969018;28;46471;-86
2022/10/14 05:42:17;;;;;;;17.53;10.90;;;13.10;71.10;;;;;;4969807;28;46410;-85
2022/10/14 05:44:43;;;;;;;24.00;9.90;;;13.00;70.10;;;;;;4983180;28;46306;-84
2022/10/14 05:47:09;;;;;;;16.70;8.87;;;13.00;71.20;;;;;;4969258;28;48136;-84
2022/10/14 05:49:35;;;;;;;18.23;10.03;;;13.00;71.40;;;;;;4957562;28;46591;-83
2022/10/14 05:52:00;;;;;;;12.83;9.00;;;13.10;71.40;;;;;;4983683;28;46268;-83
2022/10/14 05:54:26;;;;;;;12.10;7.50;;;13.10;72.60;;;;;;4986733;28;46594;-84
2022/10/14 05:56:51;;;;;;;20.87;11.77;;;13.10;71.50;;;;;;4957785;28;48196;-83
2022/10/14 05:59:17;;;;;;;21.60;12.17;;;13.10;71.30;;;;;;4983863;28;46423;-84
2022/10/14 06:01:43;;;;;;;28.23;15.50;;;13.20;71.20;;;;;;4983627;28;45849;-83
2022/10/14 06:04:16;;;;;;;27.60;11.80;;;13.20;71.00;;;;;;4966909;28;46419;-83
2022/10/14 06:06:42;;;;;;;24.63;13.97;;;13.30;71.00;;;;;;4966962;28;48091;-83
2022/10/14 06:09:07;;;;;;;46.37;20.97;;;13.30;71.00;;;;;;4987520;28;47146;-83
2022/10/14 06:11:33;;;;;;;23.17;10.60;;;13.30;71.10;;;;;;4986133;28;46692;-85
2022/10/14 06:13:58;;;;;;;13.37;7.83;;;13.30;69.90;;;;;;4987052;28;46426;-84
2022/10/14 06:16:24;;;;;;;12.40;8.10;;;13.40;70.90;;;;;;4984469;28;46502;-83
2022/10/14 06:18:49;;;;;;;12.00;7.30;;;13.40;70.60;;;;;;4969293;28;46584;-86
2022/10/14 06:21:15;;;;;;;15.73;8.00;;;13.50;70.50;;;;;;4985994;28;46498;-85
2022/10/14 06:23:41;;;;;;;11.17;6.83;;;13.60;70.40;;;;;;4984615;28;46660;-83
2022/10/14 06:26:08;;;;;;;9.10;5.83;;;13.70;70.20;;;;;;4985147;28;47412;-84
2022/10/14 06:28:34;;;;;;;8.87;5.63;;;13.70;69.80;;;;;;4987824;28;46326;-84
2022/10/14 06:31:00;;;;;;;10.20;6.10;;;13.90;69.70;;;;;;4983661;28;46523;-83
2022/10/14 06:33:27;;;;;;;9.87;5.10;;;13.90;69.50;;;;;;4980248;28;46597;-84
2022/10/14 06:35:53;;;;;;;8.83;4.80;;;14.10;68.30;;;;;;4984518;28;46589;-84
2022/10/14 06:38:18;;;;;;;19.60;7.10;;;14.10;69.30;;;;;;4990327;28;46359;-85
2022/10/14 06:40:44;;;;;;;7.20;5.00;;;14.10;69.20;;;;;;4966766;28;46332;-84
2022/10/14 06:43:09;;;;;;;9.23;5.00;;;14.10;69.40;;;;;;4972223;28;46350;-84
2022/10/14 06:45:35;;;;;;;32.87;5.00;;;14.10;68.80;;;;;;4966797;28;48344;-84
2022/10/14 06:48:00;;;;;;;7.53;5.53;;;14.10;69.70;;;;;;4978170;28;47607;-85
2022/10/14 06:50:26;;;;;;;6.73;4.20;;;14.00;70.00;;;;;;4970349;28;46327;-84
2022/10/14 06:52:52;;;;;;;10.00;3.87;;;14.00;70.30;;;;;;4985913;28;46350;-85
2022/10/14 06:55:17;;;;;;;7.60;3.70;;;14.10;70.50;;;;;;4965756;28;47924;-85
2022/10/14 06:57:43;;;;;;;6.93;3.33;;;13.90;69.60;;;;;;4985533;28;46664;-82
2022/10/14 07:00:09;;;;;;;7.50;3.73;;;13.90;71.00;;;;;;4986523;28;46534;-84
2022/10/14 07:02:37;;;;;;;7.97;3.70;;;13.80;71.10;;;;;;4965817;28;46506;-87
2022/10/14 07:05:02;;;;;;;6.63;3.50;;;13.80;72.70;;;;;;4967564;28;48382;-85
2022/10/14 07:07:29;;;;;;;49.07;22.30;;;13.70;71.80;;;;;;4984369;28;46485;-86
2022/10/14 07:09:56;;;;;;;6.43;4.00;;;13.70;71.90;;;;;;4988451;28;46407;-85
2022/10/14 07:12:22;;;;;;;6.47;3.73;;;13.80;71.80;;;;;;4971019;28;46873;-84
2022/10/14 07:14:47;;;;;;;8.13;4.20;;;13.80;71.80;;;;;;4986470;28;46314;-85
2022/10/14 07:17:13;;;;;;;11.90;4.40;;;13.90;71.70;;;;;;4990269;28;46287;-84
2022/10/14 07:19:38;;;;;;;5.73;3.90;;;14.00;71.60;;;;;;4970945;28;49604;-86
2022/10/14 07:22:04;;;;;;;8.20;3.63;;;14.20;71.30;;;;;;4986842;28;46417;-87
2022/10/14 07:24:30;;;;;;;6.67;3.33;;;14.30;71.10;;;;;;4968142;28;48241;-85
2022/10/14 07:26:55;;;;;;;9.50;3.20;;;14.40;70.00;;;;;;4964649;28;46381;-85
2022/10/14 07:29:21;;;;;;;4.87;3.30;;;14.40;70.90;;;;;;4974325;28;45794;-84
2022/10/14 07:31:46;;;;;;;10.80;3.40;;;14.60;70.70;;;;;;4973339;28;45853;-85
2022/10/14 07:34:12;;;;;;;15.17;3.50;;;14.60;70.50;;;;;;4973589;28;53347;-85
2022/10/14 07:36:37;;;;;;;5.43;3.23;;;14.80;70.40;;;;;;4985551;28;46524;-84
2022/10/14 07:39:04;;;;;;;6.23;3.63;;;14.90;70.10;;;;;;4988590;28;46406;-85
2022/10/14 07:41:31;;;;;;;5.10;2.53;;;15.20;68.20;;;;;;4989845;28;46852;-85
2022/10/14 07:44:04;;;;;;;5.00;2.60;;;15.30;69.40;;;;;;4969463;28;49899;-87
2022/10/14 07:46:32;;;;;;;7.77;2.60;;;15.40;69.40;;;;;;4969430;28;47063;-87
2022/10/14 07:49:04;;;;;;;8.00;2.87;;;15.50;69.50;;;;;;4989444;28;46493;-84
2022/10/14 07:51:31;;;;;;;9.33;2.37;;;15.50;69.10;;;;;;4988384;28;46530;-86
2022/10/14 07:53:59;;;;;;;6.23;2.27;;;15.70;69.00;;;;;;4976802;28;48359;-84
2022/10/14 07:56:25;;;;;;;3.80;1.87;;;15.60;68.90;;;;;;4965985;28;46441;-85
2022/10/14 07:58:52;;;;;;;7.73;1.97;;;15.60;68.70;;;;;;4982945;28;46432;-85
2022/10/14 08:01:18;;;;;;;8.70;4.20;;;15.60;68.30;;;;;;4985526;28;46265;-84
2022/10/14 08:03:45;;;;;;;8.13;4.40;;;15.80;68.20;;;;;;4981559;28;46699;-83
2022/10/14 08:06:11;;;;;;;6.80;2.17;;;16.00;67.40;;;;;;4983089;28;46440;-83
2022/10/14 08:08:37;;;;;;;5.90;1.67;;;16.30;66.70;;;;;;4963316;28;46424;-82
2022/10/14 08:11:27;;;;;;;5.70;1.50;;;16.60;65.60;;;;;;4962742;28;45880;-85
2022/10/14 08:13:54;;;;;;;4.60;1.80;;;16.80;64.10;;;;;;4956956;28;48183;-83
2022/10/14 08:16:22;;;;;;;7.63;2.10;;;16.90;63.40;;;;;;4981925;28;47417;-84
2022/10/14 08:18:48;;;;;;;5.87;1.83;;;17.10;62.70;;;;;;4964726;28;46429;-84
2022/10/14 08:21:15;;;;;;;5.63;1.93;;;17.30;62.10;;;;;;4965329;28;46053;-84
2022/10/14 08:23:40;;;;;;;3.80;2.00;;;17.40;61.40;;;;;;4979794;28;48202;-85
2022/10/14 08:26:35;;;;;;;3.57;2.13;;;17.60;62.20;;;;;;4987054;28;45864;-86
2022/10/14 08:29:04;;;;;;;8.30;2.23;;;17.60;60.10;;;;;;4982040;28;46431;-85
2022/10/14 08:31:30;;;;;;;5.20;1.63;;;17.60;59.90;;;;;;4968502;28;47420;-84
2022/10/14 08:33:56;;;;;;;4.47;1.50;;;17.70;60.40;;;;;;4966497;28;48246;-82
2022/10/14 08:36:22;;;;;;;3.33;1.73;;;17.80;59.80;;;;;;4967991;28;46480;-85
2022/10/14 08:38:50;;;;;;;4.97;1.70;;;17.80;59.80;;;;;;4982605;28;46418;-85
2022/10/14 08:41:29;;;;;;;5.17;2.37;;;17.90;59.80;;;;;;4982812;28;46438;-84
2022/10/14 08:44:22;;;;;;;2.70;1.70;;;17.90;59.40;;;;;;4965960;28;48318;-85
2022/10/14 08:46:53;;;;;;;22.63;9.17;;;18.00;59.00;;;;;;4983011;28;46764;-86
2022/10/14 08:49:57;;;;;;;7.10;3.03;;;18.00;59.00;;;;;;4985246;28;46312;-85
2022/10/14 08:52:41;;;;;;;3.03;2.00;;;18.00;59.00;;;;;;4943948;28;46674;-83
2022/10/14 08:55:32;;;;;;;6.83;2.03;;;18.00;59.00;;;;;;4959414;28;48180;-86
2022/10/14 08:58:15;;;;;;;8.00;3.40;;;17.90;58.90;;;;;;4985618;28;46473;-84
2022/10/14 09:00:41;;;;;;;4.03;1.77;;;17.90;58.90;;;;;;4967264;28;46366;-86
2022/10/14 09:03:21;;;;;;;4.60;1.57;;;17.90;58.90;;;;;;4962226;28;46529;-84
2022/10/14 09:06:26;;;;;;;3.10;1.80;;;18.10;58.10;;;;;;4966438;28;48421;-85
2022/10/14 09:08:58;;;;;;;8.03;1.70;;;18.10;59.20;;;;;;4978118;28;46465;-84
2022/10/14 09:11:25;;;;;;;3.13;1.77;;;18.30;58.40;;;;;;4966301;28;46698;-83
2022/10/14 09:13:56;;;;;;;3.07;1.50;;;18.20;58.10;;;;;;4984800;28;45963;-85
2022/10/14 09:16:29;;;;;;;2.97;1.73;;;18.20;58.00;;;;;;4968384;28;48013;-86
2022/10/14 09:19:13;;;;;;;5.53;2.50;;;18.20;57.50;;;;;;4965135;28;46388;-86
2022/10/14 09:21:48;;;;;;;4.60;1.90;;;18.20;57.00;;;;;;4988516;28;46397;-86
2022/10/14 09:24:16;;;;;;;5.30;2.27;;;18.20;57.00;;;;;;4967789;28;46646;-85
2022/10/14 09:26:44;;;;;;;4.37;1.67;;;18.30;56.80;;;;;;4968828;28;47958;-85
2022/10/14 09:29:18;;;;;;;2.60;1.40;;;18.60;56.00;;;;;;4983812;28;46867;-86
2022/10/14 09:31:44;;;;;;;3.80;1.40;;;18.70;54.40;;;;;;4983838;28;46370;-85
2022/10/14 09:34:18;;;;;;;6.13;1.93;;;18.90;53.80;;;;;;4969378;28;45910;-83
2022/10/14 09:36:45;;;;;;;3.37;2.00;;;19.00;53.20;;;;;;4967222;28;49788;-85
2022/10/14 09:39:11;;;;;;;4.00;1.50;;;19.10;52.90;;;;;;4967020;28;46239;-83
2022/10/14 09:41:38;;;;;;;4.87;1.67;;;19.20;52.70;;;;;;4966793;28;46537;-84
2022/10/14 09:44:24;;;;;;;13.80;7.77;;;19.20;51.90;;;;;;4964930;28;46626;-83
2022/10/14 09:46:58;;;;;;;4.13;1.97;;;19.20;51.00;;;;;;4964901;28;48105;-85
2022/10/14 09:49:38;;;;;;;11.40;5.87;;;19.30;51.00;;;;;;4983507;28;46508;-86
2022/10/14 09:52:04;;;;;;;8.30;2.23;;;19.40;50.50;;;;;;4964102;28;46420;-85
2022/10/14 09:54:31;;;;;;;7.27;3.10;;;19.60;50.20;;;;;;4991532;28;46845;-84
2022/10/14 09:57:02;;;;;;;4.23;1.50;;;19.70;49.60;;;;;;4983546;28;48497;-85
2022/10/14 09:59:28;;;;;;;3.80;1.87;;;19.80;48.90;;;;;;4981180;28;46519;-84
2022/10/14 10:01:56;;;;;;;3.60;1.93;;;19.90;48.30;;;;;;4964865;28;46730;-83
2022/10/14 10:04:36;;;;;;;3.63;1.50;;;19.80;48.10;;;;;;4967728;28;46602;-85
2022/10/14 10:07:05;;;;;;;3.27;1.50;;;19.70;48.10;;;;;;4966794;28;48299;-88
2022/10/14 10:09:31;;;;;;;3.57;1.40;;;19.70;48.50;;;;;;4985520;28;46433;-85
2022/10/14 10:11:56;;;;;;;7.17;2.27;;;19.80;48.50;;;;;;4981815;28;46839;-85
2022/10/14 10:14:31;;;;;;;10.13;1.80;;;19.90;48.30;;;;;;4967887;28;46285;-85
2022/10/14 10:17:06;;;;;;;3.40;1.50;;;19.90;47.50;;;;;;4979278;28;46922;-84
2022/10/14 10:19:34;;;;;;;9.93;1.60;;;20.00;47.70;;;;;;4964009;28;46488;-85
2022/10/14 10:22:22;;;;;;;4.10;2.10;;;20.30;45.80;;;;;;4967357;28;46402;-83
2022/10/14 10:24:50;;;;;;;4.70;1.73;;;20.40;46.20;;;;;;4978678;28;45817;-83
2022/10/14 10:27:39;;;;;;;4.87;2.03;;;20.50;46.10;;;;;;4984649;28;47097;-85
2022/10/14 10:30:13;;;;;;;7.43;1.87;;;20.70;45.00;;;;;;4979358;28;46595;-84
2022/10/14 10:33:13;;;;;;;3.37;1.60;;;20.80;44.70;;;;;;4986275;28;46337;-84
2022/10/14 10:35:51;;;;;;;3.43;1.83;;;20.90;43.30;;;;;;4983847;28;47137;-85
2022/10/14 10:38:36;;;;;;;7.23;1.60;;;20.80;43.90;;;;;;4973792;28;49644;-85
2022/10/14 10:41:29;;;;;;;5.70;1.73;;;20.80;43.30;;;;;;4973672;28;46555;-85
2022/10/14 10:44:12;;;;;;;4.40;1.63;;;20.80;43.70;;;;;;4984638;28;46904;-85
2022/10/14 10:47:05;;;;;;;3.40;1.53;;;21.00;43.30;;;;;;4967266;28;46409;-85
2022/10/14 10:49:40;;;;;;;4.50;1.80;;;21.00;43.00;;;;;;4964219;28;48228;-86
2022/10/14 10:52:27;;;;;;;4.80;1.30;;;20.90;43.10;;;;;;4988276;28;46349;-86
2022/10/14 10:55:05;;;;;;;3.20;1.50;;;20.90;43.10;;;;;;4986078;28;46390;-85
2022/10/14 10:57:39;;;;;;;2.70;1.50;;;20.80;43.20;;;;;;4985609;28;45852;-85
2022/10/14 11:00:11;;;;;;;6.50;1.43;;;20.90;42.80;;;;;;4968892;28;48739;-85
2022/10/14 11:02:59;;;;;;;3.73;1.60;;;21.10;42.30;;;;;;4983680;28;45713;-85
2022/10/14 11:05:56;;;;;;;6.00;1.50;;;21.30;41.30;;;;;;4967271;28;46421;-85
2022/10/14 11:14:37;;;;;;;3.50;1.47;;;21.60;40.10;;;;;;4990781;28;46493;-84
2022/10/14 11:17:27;;;;;;;3.17;1.53;;;21.50;39.40;;;;;;4971530;28;46469;-86
2022/10/14 11:20:03;;;;;;;2.87;1.30;;;21.30;40.30;;;;;;4984445;28;45895;-86
2022/10/14 11:22:47;;;;;;;6.70;1.30;;;21.10;40.40;;;;;;4993035;28;46797;-86
2022/10/14 11:25:23;;;;;;;3.20;1.20;;;21.00;40.00;;;;;;4987349;28;45782;-86
2022/10/14 11:28:05;;;;;;;3.40;1.90;;;20.90;40.40;;;;;;4969114;28;46607;-85
2022/10/14 11:30:48;;;;;;;3.17;1.40;;;20.80;40.40;;;;;;4985743;28;45911;-85
2022/10/14 11:33:22;;;;;;;4.77;1.47;;;20.70;40.20;;;;;;4990533;28;46630;-83
2022/10/14 11:36:11;;;;;;;7.30;1.40;;;20.80;39.10;;;;;;4983740;28;46432;-84
2022/10/14 11:38:48;;;;;;;3.83;1.67;;;20.90;40.00;;;;;;4970298;28;45850;-84
2022/10/14 11:41:46;;;;;;;5.23;1.63;;;20.90;39.50;;;;;;4987120;28;46581;-83
2022/10/14 11:44:25;;;;;;;85.90;49.43;;;21.00;39.50;;;;;;4980509;28;46551;-85
2022/10/14 11:46:55;;;;;;;92.77;50.77;;;20.90;39.40;;;;;;4991436;28;46506;-84
2022/10/14 11:49:20;;;;;;;4.00;2.30;;;20.80;40.00;;;;;;4968574;28;45781;-86
2022/10/14 11:51:59;;;;;;;4.50;1.60;;;20.70;40.40;;;;;;5002829;28;45829;-86
2022/10/14 11:54:31;;;;;;;6.17;1.90;;;20.50;40.50;;;;;;4974820;28;48295;-85
2022/10/14 11:57:31;;;;;;;4.10;1.83;;;20.40;41.00;;;;;;4978961;28;45817;-85
2022/10/14 11:59:58;;;;;;;2.10;1.13;;;20.10;41.10;;;;;;4995238;28;46390;-82
2022/10/14 12:02:51;;;;;;;4.67;1.50;;;19.90;42.10;;;;;;4999770;28;46575;-84
2022/10/14 12:05:29;;;;;;;2.80;1.30;;;19.70;42.20;;;;;;5004799;28;47910;-83
2022/10/14 12:08:15;;;;;;;8.87;1.67;;;19.60;43.90;;;;;;4995980;28;46284;-83
2022/10/14 12:10:49;;;;;;;5.80;2.20;;;19.70;42.70;;;;;;5005918;28;45793;-83
2022/10/14 12:13:25;;;;;;;9.43;6.03;;;19.70;44.50;;;;;;4998991;28;45904;-83
2022/10/14 12:15:53;;;;;;;3.77;1.90;;;19.70;41.60;;;;;;4987395;28;48060;-84
2022/10/14 12:18:18;;;;;;;4.40;2.10;;;19.80;43.90;;;;;;4982515;28;46500;-84
2022/10/14 12:20:59;;;;;;;5.90;2.50;;;19.70;41.50;;;;;;5013811;28;45846;-84
2022/10/14 12:23:31;;;;;;;6.10;1.70;;;19.90;42.70;;;;;;4988098;28;46379;-84
2022/10/14 12:26:16;;;;;;;5.27;1.33;;;19.70;41.50;;;;;;4987998;28;46272;-84
2022/10/14 12:28:43;;;;;;;4.20;1.40;;;;;;;;;;4964011;28;46731;-83
2022/10/14 12:31:27;;;;;;;3.47;1.40;;;19.70;41.40;;;;;;4988672;28;46369;-83
2022/10/14 12:34:12;;;;;;;6.13;1.87;;;19.80;42.50;;;;;;4998640;28;45950;-84
2022/10/14 12:36:43;;;;;;;5.60;1.90;;;19.80;42.40;;;;;;4971255;28;48197;-85
2022/10/14 12:39:18;;;;;;;5.50;1.37;;;19.80;42.80;;;;;;4997391;28;46426;-82
2022/10/14 12:41:53;;;;;;;3.73;1.60;;;19.70;42.60;;;;;;4984193;28;46459;-83
2022/10/14 12:44:21;;;;;;;5.10;1.70;;;19.60;42.40;;;;;;4972928;28;46208;-84
2022/10/14 12:46:49;;;;;;;5.63;1.30;;;19.50;42.60;;;;;;4996868;28;48065;-83
2022/10/14 12:49:27;;;;;;;3.30;1.30;;;19.50;43.10;;;;;;4983836;28;46370;-83
2022/10/14 12:51:55;;;;;;;3.30;1.60;;;19.20;43.30;;;;;;4981202;28;46870;-83
2022/10/14 12:54:22;;;;;;;4.90;1.30;;;18.70;44.20;;;;;;4975659;28;46381;-83
2022/10/14 12:57:02;;;;;;;5.80;1.97;;;18.30;45.10;;;;;;4990643;28;49203;-83
2022/10/14 12:59:35;;;;;;;9.30;1.50;;;17.80;46.50;;;;;;4973907;28;46405;-83
2022/10/14 13:02:18;;;;;;;3.10;1.53;;;17.60;47.20;;;;;;4991019;28;46353;-83
2022/10/14 13:04:52;;;;;;;7.10;1.80;;;17.80;46.90;;;;;;4984769;28;46409;-81
2022/10/14 13:07:17;;;;;;;5.00;1.73;;;17.90;46.60;;;;;;4990941;28;47963;-82
2022/10/14 13:09:44;;;;;;;5.60;1.83;;;17.90;46.70;;;;;;4971511;28;46994;-83